Terminal Aerodrome Forecast
Issued by NWS

Home | Current Version | Previous Version | Text Only | Print | Product List | Glossary On
Versions: 1 2 3 4 5 6 7 8 9 10 11 12 13 14 15 16 17 18
000
FTUS46 KMTR 171700
TAFSNS
TAF
KSNS 171736Z 1718/1818 29010KT P6SM SKC
     FM180300 29005KT P6SM BKN010
     FM180600 VRB04KT P6SM OVC008 PROB30 1808/1816 P6SM -DZ=

USA.gov is the U.S. government's official web portal to all federal, state and local government web resources and services.